Terminal Aerodrome Forecast
Issued by NWS Dodge City, KS

Home | Current Version | Previous Version | Graphics & Text | Print | Product List | Glossary Off
Versions: 1 2 3 4 5 6 7 8 9 10 11 12

000
FTUS43 KDDC 271738
TAFDDC
TAF
KDDC 271738Z 2718/2818 34016G25KT P6SM BKN200
     FM280000 36008KT P6SM BKN200
     FM280500 27007KT P6SM BKN070=

USA.gov is the U.S. government's official web portal to all federal, state and local government web resources and services.